Time;durP1;ratioP1;P1;durP2;ratioP2;P2;SDS_P1;SDS_P2;PMS_P1;PMS_P2;Temp;Humidity;BMP_temperature;BMP_pressure;BME280_temperature;BME280_humidity;BME280_pressure;Samples;Min_cycle;Max_cycle;Signal;HPM_P1;HPM_P2
2022/05/21 00:01:55;;;;;;;23.40;3.40;;;10.70;87.40;;;;;;4897524;29;20403;-73
2022/05/21 00:04:23;;;;;;;28.00;4.40;;;10.60;87.40;;;;;;4898354;29;20053;-73
2022/05/21 00:06:51;;;;;;;34.78;4.57;;;10.60;87.40;;;;;;4912654;29;20054;-73
2022/05/21 00:09:19;;;;;;;30.33;3.63;;;10.60;87.50;;;;;;4896739;29;20052;-73
2022/05/21 00:11:47;;;;;;;23.65;3.22;;;10.60;87.60;;;;;;4912071;29;20509;-73
2022/05/21 00:14:15;;;;;;;28.23;4.00;;;10.60;87.50;;;;;;4896783;29;20068;-73
2022/05/21 00:16:43;;;;;;;29.38;2.75;;;10.70;87.50;;;;;;4865560;29;20053;-74
2022/05/21 00:19:11;;;;;;;22.88;3.35;;;10.60;87.50;;;;;;4864865;29;20056;-73
2022/05/21 00:21:39;;;;;;;23.55;4.43;;;10.70;87.40;;;;;;4896754;29;20056;-73
2022/05/21 00:24:07;;;;;;;19.38;2.67;;;10.60;87.30;;;;;;4896596;29;20057;-73
2022/05/21 00:26:35;;;;;;;25.05;3.15;;;10.60;87.30;;;;;;4881046;29;20059;-72
2022/05/21 00:29:03;;;;;;;24.42;3.38;;;10.70;87.30;;;;;;4881127;29;20351;-72
2022/05/21 00:31:31;;;;;;;27.80;3.28;;;10.70;87.30;;;;;;4897790;29;20052;-73
2022/05/21 00:33:59;;;;;;;31.00;5.60;;;10.70;87.20;;;;;;4897353;29;20052;-73
2022/05/21 00:36:27;;;;;;;22.63;3.20;;;10.80;87.10;;;;;;4896671;29;20375;-73
2022/05/21 00:38:55;;;;;;;17.17;3.00;;;10.80;87.00;;;;;;4863965;29;20053;-73
2022/05/21 00:41:23;;;;;;;30.25;4.00;;;10.80;86.90;;;;;;4880558;29;20056;-74
2022/05/21 00:43:54;;;;;;;16.73;3.17;;;10.90;86.70;;;;;;4879871;29;20515;-74
2022/05/21 00:46:26;;;;;;;25.33;3.65;;;11.00;86.50;;;;;;4880625;29;20057;-73
2022/05/21 00:49:13;;;;;;;28.50;4.27;;;11.00;86.30;;;;;;4896430;29;20056;-74
2022/05/21 00:51:56;;;;;;;24.27;3.40;;;11.00;86.20;;;;;;4897509;29;20055;-74
2022/05/21 00:54:30;;;;;;;18.02;2.65;;;11.00;86.00;;;;;;4864922;29;20060;-74
2022/05/21 00:57:07;;;;;;;21.73;3.78;;;10.90;86.00;;;;;;4877717;29;20045;-74
2022/05/21 00:59:48;;;;;;;22.77;2.83;;;11.00;86.00;;;;;;4878840;29;20056;-74
2022/05/21 01:02:20;;;;;;;30.30;4.38;;;10.90;86.10;;;;;;4878848;29;20045;-75
2022/05/21 01:04:49;;;;;;;24.05;3.83;;;10.80;86.10;;;;;;4878801;29;20407;-73
2022/05/21 01:07:18;;;;;;;23.75;2.97;;;10.80;86.30;;;;;;4878577;29;20068;-73
2022/05/21 01:09:52;;;;;;;33.50;3.78;;;10.70;86.40;;;;;;4877432;29;20411;-73
2022/05/21 01:12:24;;;;;;;26.15;4.20;;;10.70;86.50;;;;;;4846832;29;20530;-73
2022/05/21 01:14:56;;;;;;;26.10;3.63;;;10.60;86.60;;;;;;4876724;29;20053;-73
2022/05/21 01:17:26;;;;;;;24.20;3.38;;;10.50;86.60;;;;;;4878453;29;20053;-74
2022/05/21 01:20:05;;;;;;;26.25;3.50;;;10.50;86.90;;;;;;4878514;29;20049;-74
2022/05/21 01:22:42;;;;;;;30.15;4.13;;;10.50;87.00;;;;;;4877242;29;20057;-74
2022/05/21 01:25:11;;;;;;;24.63;3.63;;;10.40;87.00;;;;;;4878371;29;20059;-73
2022/05/21 01:27:40;;;;;;;25.42;3.45;;;10.40;87.00;;;;;;4877138;29;20053;-73
2022/05/21 01:30:10;;;;;;;30.08;5.40;;;10.30;87.20;;;;;;4878062;29;20053;-73
2022/05/21 01:32:38;;;;;;;30.73;4.60;;;10.30;87.20;;;;;;4861118;29;20060;-73
2022/05/21 01:35:07;;;;;;;25.13;3.30;;;10.30;87.30;;;;;;4878287;29;20068;-74
2022/05/21 01:37:36;;;;;;;23.75;3.90;;;10.30;87.30;;;;;;4878160;29;20045;-74
2022/05/21 01:40:04;;;;;;;28.85;3.47;;;10.20;87.50;;;;;;4861436;29;20056;-74
2022/05/21 01:42:33;;;;;;;31.60;4.07;;;10.20;87.50;;;;;;4877047;29;20131;-74
2022/05/21 01:45:03;;;;;;;32.95;4.30;;;10.20;87.60;;;;;;4876970;29;20420;-73
2022/05/21 01:47:32;;;;;;;19.85;4.10;;;10.10;87.50;;;;;;4881072;29;20053;-73
2022/05/21 01:50:01;;;;;;;30.52;4.80;;;10.10;87.70;;;;;;4880370;29;20049;-73
2022/05/21 01:52:29;;;;;;;28.60;4.90;;;10.10;87.70;;;;;;4880817;29;20109;-73
2022/05/21 01:54:59;;;;;;;27.42;4.78;;;10.00;87.60;;;;;;4881672;29;20060;-73
2022/05/21 01:57:27;;;;;;;33.20;4.68;;;10.00;87.70;;;;;;4879937;29;20049;-73
2022/05/21 01:59:54;;;;;;;31.33;5.10;;;10.00;87.80;;;;;;4880430;29;20057;-73
2022/05/21 02:02:22;;;;;;;23.40;3.10;;;10.00;87.90;;;;;;4881233;29;20064;-73
2022/05/21 02:04:50;;;;;;;29.98;4.32;;;9.90;88.00;;;;;;4864748;29;20109;-74
2022/05/21 02:07:18;;;;;;;28.58;4.28;;;10.00;88.00;;;;;;4882272;29;20441;-72
2022/05/21 02:09:45;;;;;;;24.75;3.50;;;10.00;87.90;;;;;;4865205;29;20060;-73
2022/05/21 02:12:16;;;;;;;22.08;3.67;;;9.90;87.80;;;;;;4881588;29;20056;-73
2022/05/21 02:14:44;;;;;;;36.63;4.65;;;9.90;87.90;;;;;;4881127;29;20064;-72
2022/05/21 02:17:12;;;;;;;20.00;3.45;;;9.80;88.00;;;;;;4880353;29;20064;-72
2022/05/21 02:19:40;;;;;;;25.75;3.95;;;9.90;88.00;;;;;;4880329;29;20064;-73
2022/05/21 02:22:11;;;;;;;36.42;4.22;;;9.80;88.10;;;;;;4881129;29;20049;-73
2022/05/21 02:24:39;;;;;;;29.45;4.22;;;9.80;88.10;;;;;;4880190;29;20045;-73
2022/05/21 02:27:11;;;;;;;30.27;4.28;;;9.70;88.10;;;;;;4879908;29;20045;-73
2022/05/21 02:29:39;;;;;;;33.95;6.05;;;9.80;88.20;;;;;;4881246;29;20057;-73
2022/05/21 02:32:08;;;;;;;20.33;3.85;;;9.70;88.30;;;;;;4880904;29;20506;-73
2022/05/21 02:34:36;;;;;;;25.92;3.97;;;9.60;88.30;;;;;;4881219;29;20410;-72
2022/05/21 02:39:51;;;;;;;34.00;4.97;;;9.60;88.50;;;;;;4880884;29;20072;-73
2022/05/21 02:45:06;;;;;;;21.05;3.60;;;9.60;88.60;;;;;;4864307;29;20057;-72
2022/05/21 02:47:34;;;;;;;31.48;4.13;;;9.60;88.60;;;;;;4880418;29;20049;-72
2022/05/21 02:50:02;;;;;;;23.90;4.00;;;9.60;88.60;;;;;;4880868;29;20053;-73
2022/05/21 02:52:30;;;;;;;22.13;3.30;;;9.60;88.50;;;;;;4880544;29;20075;-72
2022/05/21 02:54:58;;;;;;;25.48;3.53;;;9.60;88.50;;;;;;4864006;29;20061;-74
2022/05/21 02:57:26;;;;;;;31.45;4.80;;;9.50;88.50;;;;;;4879446;29;20426;-74
2022/05/21 02:59:54;;;;;;;26.83;3.47;;;9.50;88.60;;;;;;4879511;29;20068;-73
2022/05/21 03:02:22;;;;;;;26.45;3.47;;;9.50;88.70;;;;;;4879519;29;20056;-73
2022/05/21 03:04:50;;;;;;;30.05;4.32;;;9.50;88.80;;;;;;4878917;29;20498;-73
2022/05/21 03:07:18;;;;;;;26.20;3.72;;;9.50;88.80;;;;;;4880400;29;20360;-73
2022/05/21 03:12:33;;;;;;;23.50;3.92;;;9.50;88.80;;;;;;4880349;29;20056;-73
2022/05/21 03:15:01;;;;;;;23.05;4.00;;;9.50;89.00;;;;;;4880227;29;20060;-73
2022/05/21 03:17:29;;;;;;;33.45;4.25;;;9.50;89.00;;;;;;4879182;29;20049;-73
2022/05/21 03:19:57;;;;;;;25.33;3.25;;;9.50;89.00;;;;;;4878917;29;20057;-73
2022/05/21 03:22:25;;;;;;;20.90;4.28;;;9.50;89.00;;;;;;4880281;29;20072;-73
2022/05/21 03:24:53;;;;;;;35.70;4.82;;;9.50;89.00;;;;;;4878956;29;20064;-73
2022/05/21 03:27:21;;;;;;;27.45;3.40;;;9.50;89.10;;;;;;4879187;29;20049;-73
2022/05/21 03:29:48;;;;;;;36.95;4.75;;;9.50;89.10;;;;;;4878979;29;20057;-73
2022/05/21 03:32:16;;;;;;;24.23;3.67;;;9.50;89.20;;;;;;4878693;29;20057;-73
2022/05/21 03:34:44;;;;;;;17.50;2.50;;;9.60;89.30;;;;;;4880227;29;20415;-73
2022/05/21 03:37:11;;;;;;;37.65;5.15;;;9.60;89.20;;;;;;4879905;29;20377;-73
2022/05/21 03:39:39;;;;;;;20.48;3.25;;;9.60;89.10;;;;;;4879721;29;20059;-75
2022/05/21 03:42:07;;;;;;;18.80;3.38;;;9.50;89.10;;;;;;4880258;29;20436;-74
2022/05/21 03:44:35;;;;;;;22.38;3.53;;;9.50;89.10;;;;;;4879917;29;20061;-74
2022/05/21 03:47:03;;;;;;;24.85;3.88;;;9.50;89.10;;;;;;4878677;29;20057;-74
2022/05/21 03:49:30;;;;;;;16.83;3.35;;;9.50;89.10;;;;;;4878631;29;20057;-72
2022/05/21 03:51:59;;;;;;;26.65;3.88;;;9.50;88.90;;;;;;4878522;29;20061;-72
2022/05/21 03:54:26;;;;;;;25.83;3.83;;;9.50;88.90;;;;;;4879680;29;20058;-72
2022/05/21 03:56:55;;;;;;;18.15;2.65;;;9.50;88.70;;;;;;4881213;29;20049;-72
2022/05/21 03:59:22;;;;;;;31.80;4.13;;;9.40;88.80;;;;;;4881570;29;20048;-73
2022/05/21 04:01:50;;;;;;;28.50;4.43;;;9.40;88.80;;;;;;4881407;29;20056;-72
2022/05/21 04:04:18;;;;;;;40.97;4.45;;;9.40;88.70;;;;;;4897888;29;20049;-73
2022/05/21 04:06:45;;;;;;;35.15;4.57;;;9.40;88.70;;;;;;4881332;29;20057;-72
2022/05/21 04:09:13;;;;;;;26.70;3.53;;;9.40;88.60;;;;;;4897043;29;20048;-72
2022/05/21 04:11:42;;;;;;;25.90;3.75;;;9.30;88.60;;;;;;4897922;29;20073;-72
2022/05/21 04:14:12;;;;;;;16.77;3.00;;;9.30;88.60;;;;;;4896896;29;20414;-72
2022/05/21 04:16:42;;;;;;;23.60;3.10;;;9.30;88.60;;;;;;4898018;29;20045;-72
2022/05/21 04:19:10;;;;;;;26.10;3.90;;;9.40;88.60;;;;;;4896260;29;20352;-73
2022/05/21 04:21:38;;;;;;;21.33;3.85;;;9.50;88.50;;;;;;4896525;29;20048;-72
2022/05/21 04:24:06;;;;;;;26.52;3.25;;;9.50;88.30;;;;;;4897819;29;20060;-72
2022/05/21 04:26:34;;;;;;;20.10;3.10;;;9.60;88.30;;;;;;4897887;29;20052;-72
2022/05/21 04:29:01;;;;;;;26.75;4.13;;;9.60;88.20;;;;;;4898010;29;20055;-72
2022/05/21 04:31:29;;;;;;;22.60;3.40;;;9.60;88.20;;;;;;4898010;29;20051;-72
2022/05/21 04:33:59;;;;;;;22.60;3.97;;;9.60;88.20;;;;;;4898100;29;20407;-72
2022/05/21 04:36:27;;;;;;;27.15;4.13;;;9.60;88.20;;;;;;4881281;29;20429;-72
2022/05/21 04:38:55;;;;;;;23.23;3.67;;;9.50;88.20;;;;;;4880478;29;20424;-72
2022/05/21 04:41:23;;;;;;;28.20;3.20;;;9.50;88.20;;;;;;4881255;29;20049;-72
2022/05/21 04:43:52;;;;;;;22.33;3.78;;;9.50;88.20;;;;;;4896396;29;20060;-72
2022/05/21 04:46:20;;;;;;;20.90;3.55;;;9.40;88.30;;;;;;4897500;29;20059;-72
2022/05/21 04:48:48;;;;;;;23.25;3.10;;;9.40;88.30;;;;;;4865568;29;20060;-73
2022/05/21 04:51:34;;;;;;;24.58;3.60;;;9.40;88.40;;;;;;4895901;29;20059;-73
2022/05/21 04:54:03;;;;;;;22.00;3.72;;;9.30;88.40;;;;;;4897535;29;20047;-73
2022/05/21 04:56:31;;;;;;;22.77;3.72;;;9.40;88.40;;;;;;4897682;29;20486;-74
2022/05/21 04:59:10;;;;;;;17.70;3.50;;;9.40;88.50;;;;;;4880983;29;20059;-73
2022/05/21 05:01:39;;;;;;;28.65;4.20;;;9.50;88.40;;;;;;4896455;29;20052;-73
2022/05/21 05:04:08;;;;;;;21.52;3.70;;;9.50;88.40;;;;;;4896102;29;20057;-73
2022/05/21 05:06:38;;;;;;;22.30;3.80;;;9.60;88.50;;;;;;4897431;29;20060;-73
2022/05/21 05:09:07;;;;;;;23.85;3.88;;;9.70;88.40;;;;;;4897361;29;20498;-73
2022/05/21 05:11:38;;;;;;;26.50;3.42;;;9.80;88.30;;;;;;4897196;29;20059;-73
2022/05/21 05:14:06;;;;;;;27.73;3.85;;;9.90;88.20;;;;;;4897360;29;20048;-73
2022/05/21 05:16:36;;;;;;;21.83;3.33;;;10.00;88.00;;;;;;4897507;29;20057;-73
2022/05/21 05:19:04;;;;;;;24.42;3.42;;;10.10;87.80;;;;;;4880764;29;20053;-73
2022/05/21 05:21:32;;;;;;;23.00;3.95;;;10.10;87.70;;;;;;4897193;29;20048;-73
2022/05/21 05:24:04;;;;;;;20.80;3.47;;;10.20;87.60;;;;;;4880715;29;20505;-73
2022/05/21 05:26:34;;;;;;;30.92;4.18;;;10.20;87.50;;;;;;4897170;29;20072;-73
2022/05/21 05:29:02;;;;;;;25.35;3.65;;;10.20;87.40;;;;;;4895906;29;20044;-73
2022/05/21 05:31:30;;;;;;;17.50;3.22;;;10.30;87.30;;;;;;4897056;29;20044;-73
2022/05/21 05:33:57;;;;;;;21.70;3.78;;;10.30;87.30;;;;;;4897110;29;20051;-73
2022/05/21 05:36:26;;;;;;;19.02;3.05;;;10.30;87.20;;;;;;4896895;29;20048;-73
2022/05/21 05:38:54;;;;;;;23.67;4.00;;;10.40;87.10;;;;;;4880848;29;20144;-73
2022/05/21 05:41:22;;;;;;;25.85;3.17;;;10.40;87.00;;;;;;4896787;29;20064;-73
2022/05/21 05:43:54;;;;;;;33.67;4.70;;;10.50;87.00;;;;;;4896786;29;20055;-73
2022/05/21 05:46:25;;;;;;;16.77;2.95;;;10.60;86.90;;;;;;4896844;29;20052;-73
2022/05/21 05:48:53;;;;;;;27.73;3.33;;;10.60;86.80;;;;;;4880266;29;20612;-73
2022/05/21 05:51:21;;;;;;;24.38;3.38;;;10.70;86.80;;;;;;4896193;29;20067;-73
2022/05/21 05:53:51;;;;;;;26.33;3.58;;;10.70;86.60;;;;;;4896548;29;20079;-73
2022/05/21 05:56:19;;;;;;;22.80;3.63;;;10.70;86.50;;;;;;4895674;29;20612;-73
2022/05/21 06:01:35;;;;;;;21.35;3.22;;;10.80;86.40;;;;;;4896841;29;20041;-73
2022/05/21 06:04:03;;;;;;;18.90;2.90;;;10.90;86.30;;;;;;4896921;29;20048;-73
2022/05/21 06:06:31;;;;;;;28.38;4.00;;;11.00;86.10;;;;;;4880139;29;20522;-73
2022/05/21 06:08:59;;;;;;;30.10;4.35;;;11.00;86.00;;;;;;4895802;29;20384;-73
2022/05/21 06:11:27;;;;;;;26.60;3.65;;;11.00;85.90;;;;;;4895278;29;20056;-73
2022/05/21 06:13:55;;;;;;;13.55;3.15;;;11.10;85.90;;;;;;4880252;29;20502;-74
2022/05/21 06:16:26;;;;;;;18.98;2.80;;;11.20;85.80;;;;;;4880032;29;20045;-73
2022/05/21 06:18:55;;;;;;;21.10;3.20;;;11.20;85.70;;;;;;4879759;29;20053;-73
2022/05/21 06:21:24;;;;;;;23.20;3.65;;;11.30;85.50;;;;;;4896709;29;20063;-73
2022/05/21 06:23:53;;;;;;;18.20;3.15;;;11.30;85.40;;;;;;4896528;29;20487;-73
2022/05/21 06:26:21;;;;;;;23.25;3.47;;;11.40;85.30;;;;;;4895296;29;20495;-73
2022/05/21 06:28:50;;;;;;;22.70;3.15;;;11.60;85.20;;;;;;4893716;29;20053;-73
2022/05/21 06:31:18;;;;;;;27.90;3.78;;;11.70;85.10;;;;;;4896814;29;20063;-73
2022/05/21 06:33:46;;;;;;;21.30;3.20;;;11.80;85.00;;;;;;4852789;29;20055;-73
2022/05/21 06:36:15;;;;;;;15.48;2.55;;;11.80;84.80;;;;;;4899950;29;20068;-73
2022/05/21 06:38:44;;;;;;;13.88;2.88;;;11.90;84.50;;;;;;4899775;29;20065;-73
2022/05/21 06:41:12;;;;;;;22.92;3.67;;;12.00;84.20;;;;;;4867873;29;20060;-73
2022/05/21 06:43:47;;;;;;;18.63;2.85;;;12.10;83.80;;;;;;4899888;29;20060;-74
2022/05/21 06:46:14;;;;;;;17.70;2.58;;;12.10;83.50;;;;;;4883190;29;20056;-74
2022/05/21 06:48:42;;;;;;;16.15;2.33;;;12.10;83.50;;;;;;4883008;29;20055;-74
2022/05/21 06:51:10;;;;;;;19.67;2.90;;;12.20;83.30;;;;;;4899751;29;20414;-73
2022/05/21 06:53:38;;;;;;;16.75;3.03;;;12.20;83.10;;;;;;4882793;29;20071;-73
2022/05/21 06:56:15;;;;;;;17.63;2.30;;;12.20;83.00;;;;;;4900257;29;20056;-75
2022/05/21 06:58:43;;;;;;;16.58;2.40;;;12.20;82.80;;;;;;4882887;29;20052;-74
2022/05/21 07:01:12;;;;;;;20.35;3.03;;;12.20;82.90;;;;;;4883183;29;20048;-74
2022/05/21 07:03:40;;;;;;;12.70;2.55;;;12.20;82.90;;;;;;4898942;29;20060;-74
2022/05/21 07:08:54;;;;;;;14.32;3.20;;;12.30;82.60;;;;;;4882667;29;20060;-74
2022/05/21 07:11:22;;;;;;;16.27;2.60;;;12.20;82.70;;;;;;4882478;29;20045;-73
2022/05/21 07:13:50;;;;;;;15.85;2.47;;;12.10;82.70;;;;;;4899407;29;20044;-73
2022/05/21 07:16:18;;;;;;;14.77;2.55;;;12.20;82.80;;;;;;4899376;29;20061;-73
2022/05/21 07:18:46;;;;;;;26.27;3.05;;;12.10;82.80;;;;;;4899060;29;20059;-73
2022/05/21 07:21:15;;;;;;;14.77;3.35;;;12.20;83.00;;;;;;4882269;29;20056;-73
2022/05/21 07:23:44;;;;;;;14.70;2.83;;;12.30;83.10;;;;;;4899092;29;20522;-73
2022/05/21 07:26:12;;;;;;;18.80;2.17;;;12.40;83.00;;;;;;4898577;29;20059;-73
2022/05/21 07:28:41;;;;;;;16.27;2.28;;;12.50;82.70;;;;;;4898737;29;20056;-74
2022/05/21 07:31:10;;;;;;;21.15;2.45;;;12.60;82.40;;;;;;4898816;29;20044;-73
2022/05/21 07:33:40;;;;;;;13.43;2.30;;;12.80;82.40;;;;;;4882488;29;20066;-73
2022/05/21 07:36:10;;;;;;;18.15;2.58;;;13.00;81.80;;;;;;4898087;29;20047;-73
2022/05/21 07:38:38;;;;;;;18.30;2.50;;;13.10;81.40;;;;;;4904324;29;20052;-73
2022/05/21 07:41:07;;;;;;;11.95;2.08;;;13.30;80.80;;;;;;4898362;29;20407;-73
2022/05/21 07:43:35;;;;;;;16.42;2.28;;;13.30;80.10;;;;;;4896552;29;20790;-73
2022/05/21 07:46:04;;;;;;;14.30;2.42;;;13.40;79.80;;;;;;4905037;29;20045;-74
2022/05/21 07:48:32;;;;;;;9.98;1.73;;;13.60;79.00;;;;;;4881364;29;20138;-74
2022/05/21 07:51:08;;;;;;;15.50;2.22;;;13.70;78.30;;;;;;4896142;29;20037;-74
2022/05/21 07:53:39;;;;;;;19.67;2.22;;;13.70;77.00;;;;;;4898036;29;20059;-74
2022/05/21 07:56:11;;;;;;;11.25;2.40;;;13.80;76.80;;;;;;4895938;29;20049;-74
2022/05/21 07:58:40;;;;;;;19.53;2.70;;;13.80;77.00;;;;;;4881462;29;20053;-74
2022/05/21 08:01:08;;;;;;;12.90;2.10;;;13.90;75.60;;;;;;4897917;29;20049;-74
2022/05/21 08:03:41;;;;;;;15.68;2.42;;;13.90;74.80;;;;;;4897469;29;20053;-74
2022/05/21 08:06:09;;;;;;;10.77;1.80;;;13.80;74.60;;;;;;4904706;29;20047;-75
2022/05/21 08:08:37;;;;;;;7.60;1.60;;;13.80;74.90;;;;;;4897814;29;20410;-74
2022/05/21 08:11:05;;;;;;;11.40;2.22;;;13.90;75.20;;;;;;4895318;29;20048;-73
2022/05/21 08:13:34;;;;;;;13.93;2.55;;;13.90;74.90;;;;;;4897746;29;20040;-74
2022/05/21 08:16:02;;;;;;;11.50;2.08;;;14.00;74.80;;;;;;4881504;29;20048;-74
2022/05/21 08:18:31;;;;;;;14.40;2.47;;;14.10;74.80;;;;;;4904389;29;20056;-74
2022/05/21 08:20:59;;;;;;;14.23;2.33;;;14.20;74.80;;;;;;4881285;29;20045;-74
2022/05/21 08:29:00;;;;;;;15.63;2.30;;;14.20;74.10;;;;;;4864087;29;20052;-74
2022/05/21 08:31:28;;;;;;;14.15;2.20;;;14.20;74.40;;;;;;4880596;29;20048;-74
2022/05/21 08:33:57;;;;;;;15.65;2.35;;;14.20;74.70;;;;;;4881030;29;20068;-73
2022/05/21 08:36:25;;;;;;;20.52;2.70;;;14.20;74.20;;;;;;4895573;29;20059;-74
2022/05/21 08:38:54;;;;;;;16.13;2.78;;;14.20;74.30;;;;;;4896946;29;20080;-73
2022/05/21 08:41:25;;;;;;;18.30;2.75;;;14.20;74.70;;;;;;4897028;29;20044;-74
2022/05/21 08:44:07;;;;;;;19.10;2.55;;;14.30;74.80;;;;;;4893907;29;20060;-74
2022/05/21 08:46:49;;;;;;;14.55;1.65;;;14.30;74.60;;;;;;4897368;29;20051;-73
2022/05/21 08:49:30;;;;;;;12.77;2.53;;;14.20;74.00;;;;;;4894896;29;20053;-75
2022/05/21 08:52:07;;;;;;;13.95;2.83;;;14.20;73.90;;;;;;4879121;29;20060;-74
2022/05/21 08:54:44;;;;;;;13.45;2.35;;;14.20;74.10;;;;;;4894526;29;20041;-75
2022/05/21 08:57:17;;;;;;;15.25;2.72;;;14.30;73.90;;;;;;4894980;29;20057;-73
2022/05/21 08:59:53;;;;;;;17.98;2.38;;;14.30;73.30;;;;;;4896877;29;20045;-73
2022/05/21 09:02:30;;;;;;;15.65;2.40;;;14.30;73.50;;;;;;4879432;29;20056;-74
2022/05/21 09:05:06;;;;;;;16.65;2.42;;;14.30;73.90;;;;;;4895692;29;20041;-74
2022/05/21 09:07:44;;;;;;;;;;;14.40;73.80;;;;;;4895516;29;20130;-73
2022/05/21 09:10:29;;;;;;;16.90;2.42;;;14.50;73.80;;;;;;4894727;29;19931;-75
2022/05/21 09:13:42;;;;;;;8.23;2.08;;;14.70;73.60;;;;;;4893718;29;20055;-73
2022/05/21 09:19:08;;;;;;;13.85;2.00;;;14.80;72.80;;;;;;4895993;29;20052;-73
2022/05/21 09:21:46;;;;;;;13.93;2.42;;;14.70;72.90;;;;;;4896326;29;20049;-73
2022/05/21 09:24:46;;;;;;;19.23;2.67;;;14.70;72.30;;;;;;4894498;29;20392;-73
2022/05/21 09:27:31;;;;;;;17.88;2.53;;;14.70;72.50;;;;;;4877469;29;20053;-74
2022/05/21 09:30:17;;;;;;;9.70;1.63;;;14.80;72.30;;;;;;4880025;29;20041;-74
2022/05/21 09:32:52;;;;;;;16.55;3.38;;;14.90;71.80;;;;;;4901777;29;20060;-74
2022/05/21 09:35:23;;;;;;;14.52;2.42;;;14.90;70.80;;;;;;4901733;29;20057;-74
2022/05/21 09:37:52;;;;;;;10.48;1.38;;;15.00;71.20;;;;;;4896671;29;20048;-73
2022/05/21 09:40:38;;;;;;;10.85;1.38;;;15.00;70.60;;;;;;4879976;29;20063;-74
2022/05/21 09:46:31;;;;;;;12.38;2.85;;;15.00;69.50;;;;;;4875841;29;20492;-74
2022/05/21 09:49:20;;;;;;;12.02;2.30;;;15.00;69.50;;;;;;4876270;29;20385;-73
2022/05/21 09:52:04;;;;;;;11.30;1.90;;;15.00;69.50;;;;;;4874297;29;20049;-74
2022/05/21 09:54:41;;;;;;;12.85;2.08;;;15.00;69.80;;;;;;4877750;29;20045;-74
2022/05/21 09:57:43;;;;;;;9.90;1.98;;;15.10;69.70;;;;;;4878041;29;20053;-73
2022/05/21 10:00:17;;;;;;;7.20;1.73;;;15.30;69.00;;;;;;4876957;29;20060;-73
2022/05/21 10:02:48;;;;;;;9.50;1.45;;;15.60;69.10;;;;;;4876983;29;20052;-72
2022/05/21 10:05:30;;;;;;;7.50;1.42;;;16.00;65.90;;;;;;4862085;29;20518;-73
2022/05/21 10:11:33;;;;;;;12.63;1.55;;;16.30;64.30;;;;;;4880253;29;20053;-73
2022/05/21 10:14:12;;;;;;;12.98;1.67;;;16.40;64.10;;;;;;4881534;29;20057;-74
2022/05/21 10:16:54;;;;;;;13.55;2.17;;;16.40;64.20;;;;;;4880444;29;20045;-74
2022/05/21 10:19:38;;;;;;;14.68;2.00;;;16.40;64.20;;;;;;4881637;29;20049;-74
2022/05/21 10:22:18;;;;;;;10.30;1.77;;;16.40;64.00;;;;;;4880211;29;20045;-72
2022/05/21 10:24:59;;;;;;;6.85;1.52;;;16.50;63.90;;;;;;4880046;29;20045;-75
2022/05/21 10:27:42;;;;;;;3.38;0.80;;;16.60;63.00;;;;;;4881079;29;20075;-74
2022/05/21 10:30:23;;;;;;;8.95;1.70;;;16.70;60.30;;;;;;4886969;29;20037;-74
2022/05/21 10:33:06;;;;;;;4.93;1.05;;;16.60;61.80;;;;;;4879667;29;20451;-74
2022/05/21 10:35:53;;;;;;;8.50;1.50;;;16.70;61.90;;;;;;4881046;29;20049;-75
2022/05/21 10:38:42;;;;;;;11.75;2.10;;;16.60;60.20;;;;;;4864599;29;20049;-75
2022/05/21 10:41:32;;;;;;;9.00;1.38;;;16.40;61.80;;;;;;4878511;29;20060;-73
2022/05/21 10:44:18;;;;;;;10.50;1.65;;;16.30;62.10;;;;;;4886331;29;20040;-73
2022/05/21 10:46:57;;;;;;;10.20;1.73;;;16.00;63.20;;;;;;4898688;29;20048;-74
2022/05/21 10:49:54;;;;;;;12.05;2.50;;;16.30;63.90;;;;;;4898431;29;20052;-74
2022/05/21 10:52:52;;;;;;;10.77;1.50;;;16.80;63.10;;;;;;4897451;29;20060;-74
2022/05/21 10:55:58;;;;;;;10.45;1.83;;;17.00;61.70;;;;;;4897256;29;20506;-75
2022/05/21 10:58:42;;;;;;;6.80;1.77;;;17.30;61.60;;;;;;4898047;29;20048;-74
2022/05/21 11:01:22;;;;;;;8.27;1.70;;;17.30;60.20;;;;;;4905427;29;20040;-74
2022/05/21 11:04:09;;;;;;;10.20;2.45;;;17.20;58.50;;;;;;4898853;29;20048;-74
2022/05/21 11:06:52;;;;;;;13.00;1.50;;;17.00;58.30;;;;;;4896459;29;20057;-73
2022/05/21 11:09:37;;;;;;;11.75;2.65;;;16.80;59.10;;;;;;4895475;29;20076;-74
2022/05/21 11:12:26;;;;;;;6.55;1.13;;;16.80;59.80;;;;;;4881339;29;20055;-75
2022/05/21 11:15:03;;;;;;;17.38;2.45;;;16.90;59.50;;;;;;4898256;29;20056;-74
2022/05/21 11:17:51;;;;;;;10.55;2.53;;;17.00;60.30;;;;;;4881774;29;20044;-73
2022/05/21 11:20:27;;;;;;;7.65;1.58;;;17.30;59.90;;;;;;4903748;29;20079;-74
2022/05/21 11:23:15;;;;;;;16.67;2.78;;;17.40;59.90;;;;;;4871738;29;20060;-73
2022/05/21 11:25:58;;;;;;;8.45;1.75;;;17.80;59.30;;;;;;4903671;29;20051;-75
2022/05/21 11:28:43;;;;;;;7.55;1.42;;;18.10;58.80;;;;;;4895494;29;20055;-74
2022/05/21 11:37:18;;;;;;;8.68;1.42;;;18.50;55.30;;;;;;4882005;29;20502;-74
2022/05/21 11:39:44;;;;;;;9.43;1.95;;;18.50;55.40;;;;;;4897612;29;20053;-73
2022/05/21 11:42:17;;;;;;;12.55;2.10;;;18.30;55.00;;;;;;4881412;29;20076;-73
2022/05/21 11:45:10;;;;;;;10.82;1.80;;;18.40;55.80;;;;;;4881926;29;20537;-73
2022/05/21 11:47:50;;;;;;;11.70;2.13;;;18.50;54.40;;;;;;4898672;29;20061;-73
2022/05/21 11:50:25;;;;;;;7.05;1.55;;;18.60;54.50;;;;;;4866200;29;20068;-73
2022/05/21 11:52:58;;;;;;;7.55;1.80;;;18.80;53.20;;;;;;4881730;29;20056;-72
2022/05/21 11:55:28;;;;;;;;;;;18.70;52.70;;;;;;4899108;29;20070;-72
2022/05/21 11:58:00;;;;;;;8.45;1.40;;;18.80;53.40;;;;;;4898545;29;19931;-72
2022/05/21 12:00:27;;;;;;;9.18;2.00;;;18.90;52.30;;;;;;4897721;29;20635;-73
2022/05/21 12:02:56;;;;;;;7.72;1.60;;;19.20;50.80;;;;;;4898444;29;20056;-73
2022/05/21 12:05:41;;;;;;;8.52;1.42;;;19.30;50.30;;;;;;4881593;29;20045;-73
2022/05/21 12:08:22;;;;;;;13.82;2.28;;;19.60;51.10;;;;;;4896614;29;20056;-73
2022/05/21 12:10:55;;;;;;;5.95;1.17;;;19.80;49.50;;;;;;4896993;29;20045;-73
2022/05/21 12:13:35;;;;;;;4.35;1.35;;;20.10;48.20;;;;;;4897774;29;20056;-73
2022/05/21 12:16:24;;;;;;;12.10;1.75;;;20.20;47.50;;;;;;4898158;29;20064;-73
2022/05/21 12:18:57;;;;;;;7.13;1.27;;;20.10;48.00;;;;;;4896821;29;20052;-73
2022/05/21 12:21:32;;;;;;;5.03;1.42;;;20.20;46.20;;;;;;4896583;29;20045;-74
2022/05/21 12:24:00;;;;;;;5.78;1.05;;;20.20;44.90;;;;;;4881469;29;20060;-74
2022/05/21 12:26:33;;;;;;;9.10;1.90;;;20.00;44.70;;;;;;4898148;29;20052;-75
2022/05/21 12:29:20;;;;;;;6.38;1.35;;;19.60;46.30;;;;;;4897481;29;20048;-75
2022/05/21 12:31:51;;;;;;;9.35;1.60;;;19.80;46.90;;;;;;4898508;29;20052;-74
2022/05/21 12:34:28;;;;;;;6.15;1.30;;;20.10;47.20;;;;;;4898100;29;20053;-73
2022/05/21 12:37:16;;;;;;;7.20;1.45;;;20.30;45.30;;;;;;4897976;29;20048;-73
2022/05/21 12:39:44;;;;;;;9.15;1.75;;;20.60;45.90;;;;;;4895827;29;20506;-73
2022/05/21 12:42:22;;;;;;;4.55;1.05;;;21.10;44.20;;;;;;4897326;29;20052;-73
2022/05/21 12:44:50;;;;;;;9.45;1.70;;;21.00;42.30;;;;;;4897852;29;20048;-73
2022/05/21 12:47:31;;;;;;;10.07;1.80;;;20.50;43.50;;;;;;4897575;29;20060;-74
2022/05/21 12:50:03;;;;;;;11.02;1.67;;;20.20;45.70;;;;;;4897810;29;20048;-73
2022/05/21 12:52:53;;;;;;;8.80;1.70;;;20.40;47.00;;;;;;4897544;29;20150;-74
2022/05/21 12:55:22;;;;;;;8.85;1.33;;;20.80;44.90;;;;;;4880451;29;20056;-74
2022/05/21 12:57:50;;;;;;;6.65;1.70;;;20.80;45.10;;;;;;4896294;29;20053;-73
2022/05/21 13:00:20;;;;;;;12.75;2.47;;;21.00;45.70;;;;;;4897514;29;20048;-74
2022/05/21 13:02:52;;;;;;;4.60;1.20;;;20.90;45.50;;;;;;4896707;29;20051;-73
2022/05/21 13:05:28;;;;;;;10.75;1.80;;;20.80;45.70;;;;;;4880630;29;20056;-74
2022/05/21 13:08:04;;;;;;;9.30;1.80;;;20.80;46.40;;;;;;4897464;29;20060;-73
2022/05/21 13:10:39;;;;;;;10.38;1.77;;;20.80;46.10;;;;;;4895949;29;20045;-74
2022/05/21 13:13:13;;;;;;;3.35;1.10;;;21.20;45.00;;;;;;4897312;29;20044;-73
2022/05/21 13:15:50;;;;;;;9.45;1.50;;;21.30;42.80;;;;;;4897347;29;20060;-73
2022/05/21 13:18:37;;;;;;;12.82;2.38;;;20.90;44.10;;;;;;4896081;29;20111;-73
2022/05/21 13:21:40;;;;;;;13.45;1.98;;;20.90;45.30;;;;;;4895802;29;20056;-73
2022/05/21 13:24:11;;;;;;;12.07;1.90;;;21.60;43.90;;;;;;4880646;29;20052;-73
2022/05/21 13:26:39;;;;;;;7.25;2.15;;;22.00;43.80;;;;;;4896801;29;20602;-74
2022/05/21 13:29:21;;;;;;;7.88;1.42;;;22.10;41.80;;;;;;4880414;29;20056;-74
2022/05/21 13:31:51;;;;;;;7.80;1.45;;;22.40;41.30;;;;;;4895977;29;20063;-73
2022/05/21 13:34:22;;;;;;;8.55;2.08;;;23.20;39.80;;;;;;4896738;29;20399;-74
2022/05/21 13:36:53;;;;;;;11.23;2.03;;;23.30;39.00;;;;;;4897154;29;20064;-74
2022/05/21 13:39:26;;;;;;;10.73;2.35;;;22.80;39.00;;;;;;4880065;29;20049;-74
2022/05/21 13:41:57;;;;;;;5.82;1.50;;;22.00;41.20;;;;;;4883209;29;20053;-73
2022/05/21 13:44:28;;;;;;;11.00;2.47;;;21.50;41.10;;;;;;4883945;29;20067;-74